Time;durP1;ratioP1;P1;durP2;ratioP2;P2;SDS_P1;SDS_P2;PMS_P1;PMS_P2;Temp;Humidity;BMP_temperature;BMP_pressure;BME280_temperature;BME280_humidity;BME280_pressure;Samples;Min_cycle;Max_cycle;Signal;HPM_P1;HPM_P2
2022/08/20 00:00:41;;;;;;;1.88;1.08;;;24.40;68.60;;;;;;4461428;32;20089;-72
2022/08/20 00:03:15;;;;;;;1.02;0.88;;;24.40;68.60;;;;;;4461460;32;20125;-73
2022/08/20 00:05:44;;;;;;;2.15;1.27;;;24.40;68.60;;;;;;4447233;32;20074;-72
2022/08/20 00:08:11;;;;;;;1.90;1.20;;;24.40;68.50;;;;;;4461017;32;20100;-72
2022/08/20 00:10:40;;;;;;;1.92;1.05;;;24.40;68.50;;;;;;4447356;32;20062;-72
2022/08/20 00:13:09;;;;;;;1.13;0.93;;;24.40;68.50;;;;;;4446895;32;20061;-72
2022/08/20 00:15:37;;;;;;;1.75;1.10;;;24.40;68.50;;;;;;4460643;32;20569;-73
2022/08/20 00:18:04;;;;;;;1.17;1.00;;;24.40;68.50;;;;;;4461132;32;20227;-72
2022/08/20 00:20:35;;;;;;;1.38;1.10;;;24.40;68.50;;;;;;4461086;32;20231;-72
2022/08/20 00:23:03;;;;;;;1.50;1.20;;;24.40;68.40;;;;;;4461489;32;20520;-72
2022/08/20 00:25:30;;;;;;;1.77;1.08;;;24.40;68.50;;;;;;4461311;32;20096;-73
2022/08/20 00:27:57;;;;;;;4.32;0.90;;;24.40;68.40;;;;;;4460880;32;20365;-72
2022/08/20 00:30:25;;;;;;;1.45;1.13;;;24.40;68.40;;;;;;4446903;32;20069;-72
2022/08/20 00:33:01;;;;;;;1.75;1.15;;;24.40;68.40;;;;;;4461000;32;20086;-72
2022/08/20 00:35:31;;;;;;;1.88;1.05;;;24.40;68.30;;;;;;4460821;32;20085;-72
2022/08/20 00:37:56;;;;;;;2.17;1.23;;;24.40;68.40;;;;;;4460598;32;20092;-73
2022/08/20 00:40:26;;;;;;;1.77;0.98;;;24.40;68.30;;;;;;4461135;32;20125;-73
2022/08/20 00:42:57;;;;;;;2.15;1.10;;;24.40;68.40;;;;;;4460866;32;20091;-72
2022/08/20 00:45:26;;;;;;;2.33;1.30;;;24.40;68.30;;;;;;4461254;32;20410;-72
2022/08/20 00:47:54;;;;;;;1.83;1.10;;;24.40;68.30;;;;;;4460562;32;20066;-72
2022/08/20 00:50:32;;;;;;;3.30;0.98;;;24.30;68.20;;;;;;4461089;32;20589;-72
2022/08/20 00:53:01;;;;;;;1.83;1.30;;;24.40;68.20;;;;;;4460809;32;20090;-72
2022/08/20 00:55:28;;;;;;;1.52;1.15;;;24.40;68.30;;;;;;4446706;32;20163;-72
2022/08/20 00:57:58;;;;;;;3.05;0.90;;;24.30;68.30;;;;;;4446954;32;20470;-72
2022/08/20 01:00:27;;;;;;;2.45;1.17;;;24.30;68.20;;;;;;4446359;32;20337;-72
2022/08/20 01:02:54;;;;;;;1.60;1.10;;;24.30;68.20;;;;;;4460581;32;20423;-72
2022/08/20 01:05:22;;;;;;;1.88;1.00;;;24.30;68.20;;;;;;4460790;32;20171;-73
2022/08/20 01:07:52;;;;;;;2.78;1.08;;;24.30;68.20;;;;;;4460404;32;20080;-71
2022/08/20 01:10:24;;;;;;;2.47;1.05;;;24.30;68.10;;;;;;4460755;32;20160;-72
2022/08/20 01:12:52;;;;;;;2.00;1.20;;;24.30;68.10;;;;;;4461366;32;20081;-72
2022/08/20 01:15:20;;;;;;;1.05;0.95;;;24.30;68.10;;;;;;4460704;32;20140;-72
2022/08/20 01:17:51;;;;;;;2.13;1.08;;;24.30;68.10;;;;;;4460623;32;20078;-72
2022/08/20 01:20:21;;;;;;;2.15;1.08;;;24.30;68.10;;;;;;4460476;32;20538;-72
2022/08/20 01:23:28;;;;;;;2.00;1.05;;;24.30;68.00;;;;;;4460586;32;20211;-71
2022/08/20 01:26:11;;;;;;;0.80;0.80;;;24.30;68.00;;;;;;4460812;32;20482;-72
2022/08/20 01:28:45;;;;;;;1.47;1.10;;;24.30;68.00;;;;;;4460309;32;20085;-72
2022/08/20 01:31:19;;;;;;;2.53;0.90;;;24.30;68.10;;;;;;4460661;32;20089;-72
2022/08/20 01:33:45;;;;;;;1.50;1.00;;;24.30;68.00;;;;;;4460349;32;20096;-72
2022/08/20 01:36:14;;;;;;;2.15;1.15;;;24.30;68.00;;;;;;4460482;32;20089;-72
2022/08/20 01:38:41;;;;;;;1.42;0.95;;;24.30;68.00;;;;;;4460424;32;20406;-72
2022/08/20 01:41:35;;;;;;;1.75;1.10;;;24.30;68.00;;;;;;4460374;32;20222;-72
2022/08/20 01:44:01;;;;;;;1.55;1.05;;;24.30;67.90;;;;;;4460532;32;20137;-72
2022/08/20 01:46:29;;;;;;;2.63;1.02;;;24.30;68.00;;;;;;4460520;32;20084;-72
2022/08/20 01:48:57;;;;;;;2.17;1.10;;;24.30;67.90;;;;;;4460309;32;20657;-72
2022/08/20 01:51:27;;;;;;;1.77;0.90;;;24.20;67.80;;;;;;4460338;32;20074;-72
2022/08/20 01:53:55;;;;;;;1.92;1.08;;;24.20;67.80;;;;;;4460753;32;20070;-72
2022/08/20 01:56:25;;;;;;;1.85;1.13;;;24.20;67.70;;;;;;4460292;32;20089;-72
2022/08/20 01:58:54;;;;;;;2.03;1.17;;;24.20;67.60;;;;;;4460083;32;20078;-72
2022/08/20 02:01:39;;;;;;;1.65;0.90;;;24.20;67.60;;;;;;4460346;32;20140;-73
2022/08/20 02:04:08;;;;;;;1.33;0.80;;;24.20;67.60;;;;;;4460306;32;20085;-72
2022/08/20 02:06:39;;;;;;;0.93;0.70;;;24.20;67.70;;;;;;4459909;32;20114;-72
2022/08/20 02:09:06;;;;;;;1.63;1.00;;;24.20;67.70;;;;;;4460290;32;20098;-72
2022/08/20 02:11:34;;;;;;;2.13;0.77;;;24.20;67.70;;;;;;4460455;32;20506;-72
2022/08/20 02:14:00;;;;;;;2.30;1.00;;;24.20;67.70;;;;;;4460414;32;20081;-72
2022/08/20 02:16:32;;;;;;;2.70;1.13;;;24.20;67.70;;;;;;4460421;32;20528;-72
2022/08/20 02:19:08;;;;;;;1.27;0.80;;;24.20;67.60;;;;;;4460143;32;20422;-72
2022/08/20 02:21:39;;;;;;;1.92;1.20;;;24.20;67.60;;;;;;4461812;32;20109;-72
2022/08/20 02:24:04;;;;;;;2.25;1.00;;;24.20;67.60;;;;;;4462970;32;20110;-72
2022/08/20 02:26:30;;;;;;;1.55;1.00;;;24.20;67.60;;;;;;4448512;32;20167;-72
2022/08/20 02:28:58;;;;;;;1.52;0.95;;;24.20;67.50;;;;;;4448647;32;20151;-72
2022/08/20 02:31:24;;;;;;;1.88;1.10;;;24.20;67.50;;;;;;4462588;32;20116;-72
2022/08/20 02:33:50;;;;;;;1.52;1.00;;;24.20;67.60;;;;;;4448522;32;20220;-72
2022/08/20 02:36:18;;;;;;;2.92;1.05;;;24.20;67.50;;;;;;4448687;32;20097;-72
2022/08/20 02:38:45;;;;;;;1.13;0.95;;;24.20;67.50;;;;;;4462419;32;20084;-72
2022/08/20 02:41:11;;;;;;;2.88;1.10;;;24.20;67.50;;;;;;4462953;32;20085;-72
2022/08/20 02:43:38;;;;;;;1.65;1.10;;;24.20;67.50;;;;;;4462591;32;20239;-72
2022/08/20 02:46:06;;;;;;;1.10;0.90;;;24.20;67.50;;;;;;4462645;32;20118;-72
2022/08/20 02:48:32;;;;;;;2.30;0.90;;;24.20;67.50;;;;;;4462256;32;20116;-72
2022/08/20 02:51:01;;;;;;;1.65;1.05;;;24.20;67.60;;;;;;4462402;32;20065;-73
2022/08/20 02:53:29;;;;;;;2.20;1.00;;;24.20;67.50;;;;;;4462457;32;20073;-73
2022/08/20 02:55:55;;;;;;;1.92;1.02;;;24.20;67.50;;;;;;4462116;32;20432;-72
2022/08/20 02:58:22;;;;;;;1.63;1.00;;;24.20;67.50;;;;;;4462340;32;20183;-72
2022/08/20 03:00:49;;;;;;;1.33;0.90;;;24.20;67.50;;;;;;4462449;32;20074;-72
2022/08/20 03:03:19;;;;;;;1.40;0.90;;;24.20;67.50;;;;;;4462277;32;20085;-72
2022/08/20 03:05:44;;;;;;;1.52;0.75;;;24.20;67.40;;;;;;4462286;32;20570;-72
2022/08/20 03:08:13;;;;;;;1.73;0.82;;;24.10;67.30;;;;;;4462403;32;20070;-72
2022/08/20 03:10:40;;;;;;;1.00;0.88;;;24.10;67.40;;;;;;4461904;32;20207;-72
2022/08/20 03:13:10;;;;;;;0.73;0.65;;;24.10;67.40;;;;;;4462412;32;20096;-72
2022/08/20 03:15:35;;;;;;;1.35;0.90;;;24.10;67.40;;;;;;4462267;32;20078;-72
2022/08/20 03:18:02;;;;;;;2.80;0.95;;;24.10;67.40;;;;;;4461759;32;20089;-72
2022/08/20 03:20:29;;;;;;;1.92;0.80;;;24.10;67.40;;;;;;4461990;32;20426;-72
2022/08/20 03:22:56;;;;;;;1.35;0.77;;;24.10;67.30;;;;;;4462007;32;20090;-72
2022/08/20 03:25:22;;;;;;;1.67;0.95;;;24.10;67.30;;;;;;4462146;32;20073;-72
2022/08/20 03:27:48;;;;;;;1.63;0.95;;;24.10;67.30;;;;;;4461834;32;20101;-72
2022/08/20 03:30:16;;;;;;;2.20;0.95;;;24.10;67.30;;;;;;4461853;32;20129;-72
2022/08/20 03:32:42;;;;;;;1.58;0.90;;;24.10;67.30;;;;;;4461464;32;20511;-72
2022/08/20 03:35:12;;;;;;;1.70;0.85;;;24.10;67.20;;;;;;4461764;32;20523;-72
2022/08/20 03:37:39;;;;;;;2.03;1.00;;;24.10;67.20;;;;;;4461583;32;20093;-72
2022/08/20 03:40:08;;;;;;;1.80;0.90;;;24.10;67.20;;;;;;4461826;32;20117;-72
2022/08/20 03:42:34;;;;;;;1.63;0.90;;;24.10;67.20;;;;;;4461698;32;20132;-72
2022/08/20 03:45:00;;;;;;;1.27;0.88;;;24.10;67.20;;;;;;4461967;32;20088;-72
2022/08/20 03:47:26;;;;;;;1.67;0.80;;;24.10;67.20;;;;;;4461282;32;20074;-72
2022/08/20 03:49:58;;;;;;;1.65;1.00;;;24.00;67.10;;;;;;4461807;32;20093;-72
2022/08/20 03:52:24;;;;;;;1.58;0.82;;;24.00;67.10;;;;;;4461666;32;20120;-72
2022/08/20 03:54:50;;;;;;;2.30;0.80;;;24.00;67.10;;;;;;4461489;32;20070;-75
2022/08/20 03:57:15;;;;;;;1.13;0.73;;;24.00;67.10;;;;;;4461501;32;20084;-72
2022/08/20 03:59:43;;;;;;;0.95;0.85;;;24.00;67.10;;;;;;4447639;32;20151;-72
2022/08/20 04:02:10;;;;;;;1.17;0.68;;;24.00;67.10;;;;;;4461553;32;20082;-72
2022/08/20 04:04:37;;;;;;;2.05;0.68;;;24.00;67.00;;;;;;4461375;32;20140;-71
2022/08/20 04:07:12;;;;;;;1.27;0.73;;;24.00;67.00;;;;;;4461498;32;20188;-72
2022/08/20 04:09:38;;;;;;;1.48;0.80;;;24.00;67.00;;;;;;4461352;32;20084;-72
2022/08/20 04:12:06;;;;;;;1.33;0.70;;;24.00;67.00;;;;;;4461257;32;20109;-72
2022/08/20 04:14:34;;;;;;;1.65;0.90;;;24.00;67.00;;;;;;4461317;32;20117;-72
2022/08/20 04:17:05;;;;;;;1.45;0.68;;;24.00;67.00;;;;;;4461514;32;20534;-72
2022/08/20 04:19:32;;;;;;;1.75;0.75;;;24.00;66.90;;;;;;4461074;32;20140;-72
2022/08/20 04:21:59;;;;;;;1.30;0.70;;;24.00;67.00;;;;;;4461215;32;20089;-72
2022/08/20 04:24:26;;;;;;;1.48;0.90;;;24.00;66.90;;;;;;4461318;32;20102;-72
2022/08/20 04:26:53;;;;;;;1.10;0.77;;;24.00;66.90;;;;;;4461264;32;20228;-72
2022/08/20 04:29:24;;;;;;;1.25;0.80;;;24.00;66.90;;;;;;4461295;32;20077;-72
2022/08/20 04:31:51;;;;;;;1.52;0.73;;;24.00;66.80;;;;;;4461308;32;20069;-72
2022/08/20 04:34:17;;;;;;;1.77;0.80;;;24.00;66.80;;;;;;4460545;32;20160;-72
2022/08/20 04:36:46;;;;;;;1.85;0.80;;;24.00;66.80;;;;;;4460677;32;20491;-72
2022/08/20 04:39:14;;;;;;;2.95;0.90;;;24.00;66.80;;;;;;4460886;32;20497;-72
2022/08/20 04:41:41;;;;;;;1.30;0.77;;;24.00;66.80;;;;;;4460914;32;20187;-72
2022/08/20 04:44:07;;;;;;;2.80;0.70;;;24.00;66.80;;;;;;4460283;32;20092;-72
2022/08/20 04:46:33;;;;;;;3.53;0.70;;;24.00;66.80;;;;;;4460519;32;20167;-72
2022/08/20 04:49:00;;;;;;;1.38;0.82;;;23.90;66.70;;;;;;4460826;32;20065;-72
2022/08/20 04:51:26;;;;;;;0.93;0.70;;;23.90;66.70;;;;;;4460924;32;20070;-72
2022/08/20 04:53:53;;;;;;;1.48;0.85;;;24.00;66.70;;;;;;4460764;32;20088;-72
2022/08/20 04:56:22;;;;;;;1.55;0.75;;;23.90;66.70;;;;;;4460975;32;20164;-72
2022/08/20 04:58:49;;;;;;;1.98;0.68;;;23.90;66.70;;;;;;4460643;32;20426;-72
2022/08/20 05:01:15;;;;;;;1.27;0.73;;;23.90;66.60;;;;;;4460557;32;20171;-72
2022/08/20 05:03:41;;;;;;;1.40;0.80;;;23.90;66.60;;;;;;4460683;32;20203;-71
2022/08/20 05:06:09;;;;;;;0.47;0.47;;;23.90;66.60;;;;;;4460301;32;20061;-72
2022/08/20 05:08:37;;;;;;;0.85;0.60;;;23.90;66.60;;;;;;4460587;32;20207;-72
2022/08/20 05:11:04;;;;;;;1.08;0.70;;;23.90;66.60;;;;;;4460394;32;20089;-73
2022/08/20 05:13:30;;;;;;;2.03;0.90;;;23.90;66.60;;;;;;4460543;32;20125;-72
2022/08/20 05:15:58;;;;;;;1.90;0.80;;;23.90;66.60;;;;;;4460629;32;20220;-71
2022/08/20 05:18:25;;;;;;;2.50;1.00;;;23.90;66.60;;;;;;4460477;32;20471;-72
2022/08/20 05:20:52;;;;;;;1.25;0.65;;;23.90;66.60;;;;;;4446280;32;20507;-72
2022/08/20 05:23:20;;;;;;;2.28;0.63;;;23.90;66.60;;;;;;4460755;32;20074;-72
2022/08/20 05:25:51;;;;;;;1.30;0.85;;;23.90;66.60;;;;;;4460449;32;20097;-72
2022/08/20 05:28:21;;;;;;;1.08;0.77;;;23.90;66.60;;;;;;4460204;32;20074;-72
2022/08/20 05:30:48;;;;;;;2.25;1.00;;;23.90;66.60;;;;;;4460475;32;20536;-72
2022/08/20 05:33:18;;;;;;;2.67;0.80;;;23.90;66.60;;;;;;4460364;32;20086;-72
2022/08/20 05:35:46;;;;;;;1.55;0.70;;;23.90;66.60;;;;;;4460103;32;20121;-72
2022/08/20 05:38:15;;;;;;;1.02;0.55;;;23.90;66.60;;;;;;4460781;32;20073;-72
2022/08/20 05:40:41;;;;;;;1.20;0.80;;;23.80;66.50;;;;;;4460153;32;20074;-71
2022/08/20 05:43:08;;;;;;;0.98;0.70;;;23.90;66.60;;;;;;4460427;32;20133;-72
2022/08/20 05:45:36;;;;;;;0.85;0.70;;;23.80;66.50;;;;;;4460337;32;20175;-72
2022/08/20 05:48:11;;;;;;;1.30;0.60;;;23.80;66.40;;;;;;4460580;32;20159;-72
2022/08/20 05:50:41;;;;;;;1.75;0.90;;;23.80;66.40;;;;;;4460668;32;20096;-72
2022/08/20 05:53:07;;;;;;;1.15;0.68;;;23.80;66.40;;;;;;4460570;32;20533;-72
2022/08/20 05:55:36;;;;;;;1.20;0.73;;;23.80;66.50;;;;;;4461989;32;20518;-72
2022/08/20 05:58:06;;;;;;;1.88;0.70;;;23.80;66.50;;;;;;4463273;32;20220;-72
2022/08/20 06:00:34;;;;;;;1.63;0.77;;;23.80;66.50;;;;;;4463233;32;20132;-72
2022/08/20 06:05:45;;;;;;;1.33;0.70;;;23.80;66.40;;;;;;4463492;32;20109;-72
2022/08/20 06:08:11;;;;;;;1.45;0.70;;;23.80;66.40;;;;;;4462774;32;20168;-71
2022/08/20 06:10:39;;;;;;;1.40;0.80;;;23.80;66.40;;;;;;4462786;32;20136;-71
2022/08/20 06:13:05;;;;;;;1.08;0.60;;;23.90;66.40;;;;;;4463092;32;20567;-72
2022/08/20 06:15:33;;;;;;;0.73;0.50;;;23.90;66.40;;;;;;4462749;32;20081;-72
2022/08/20 06:17:58;;;;;;;1.05;0.50;;;23.80;66.20;;;;;;4463011;32;20097;-72
2022/08/20 06:20:27;;;;;;;0.70;0.50;;;23.90;66.30;;;;;;4463156;32;20195;-72
2022/08/20 06:22:54;;;;;;;0.60;0.50;;;23.90;66.30;;;;;;4463046;32;20078;-72
2022/08/20 06:25:21;;;;;;;1.10;0.65;;;23.90;66.20;;;;;;4462803;32;20415;-72
2022/08/20 06:27:47;;;;;;;1.38;0.85;;;23.90;66.20;;;;;;4462945;32;20074;-72
2022/08/20 06:30:14;;;;;;;1.05;0.35;;;23.90;66.10;;;;;;4463030;32;20208;-77
2022/08/20 06:32:40;;;;;;;1.40;0.50;;;24.00;66.20;;;;;;4462665;32;20430;-74
2022/08/20 06:35:08;;;;;;;1.02;0.50;;;24.00;66.20;;;;;;4462265;32;20488;-73
2022/08/20 06:37:37;;;;;;;3.30;0.63;;;24.00;66.00;;;;;;4448816;32;20085;-73
2022/08/20 06:40:05;;;;;;;3.47;0.85;;;24.00;65.90;;;;;;4462610;32;20095;-74
2022/08/20 06:42:31;;;;;;;1.67;0.60;;;24.00;65.50;;;;;;4462539;32;20418;-74
2022/08/20 06:44:59;;;;;;;4.15;0.93;;;24.00;65.50;;;;;;4462496;32;20514;-74
2022/08/20 06:47:25;;;;;;;2.90;0.70;;;24.00;65.20;;;;;;4448693;32;20434;-74
2022/08/20 06:49:51;;;;;;;4.60;1.10;;;24.10;65.00;;;;;;4462452;32;20074;-72
2022/08/20 06:52:17;;;;;;;5.60;0.90;;;24.10;64.90;;;;;;4462539;32;20082;-74
2022/08/20 06:54:45;;;;;;;4.72;0.98;;;24.10;64.90;;;;;;4462451;32;20077;-74
2022/08/20 06:57:11;;;;;;;3.42;1.05;;;24.10;64.70;;;;;;4462622;32;20074;-74
2022/08/20 06:59:37;;;;;;;3.50;1.08;;;24.10;64.60;;;;;;4462385;32;20112;-74
2022/08/20 07:02:04;;;;;;;6.22;1.10;;;24.10;64.50;;;;;;4462191;32;20088;-75
2022/08/20 07:04:30;;;;;;;5.00;1.20;;;24.10;64.40;;;;;;4462085;32;20069;-74
2022/08/20 07:06:56;;;;;;;4.13;1.25;;;24.00;64.40;;;;;;4461570;32;20074;-74
2022/08/20 07:09:24;;;;;;;8.38;1.08;;;24.10;64.60;;;;;;4462249;32;20086;-74
2022/08/20 07:11:51;;;;;;;7.15;0.82;;;24.10;64.90;;;;;;4461908;32;20091;-74
2022/08/20 07:14:17;;;;;;;10.07;1.20;;;24.10;64.90;;;;;;4462233;32;20543;-74
2022/08/20 07:16:44;;;;;;;5.28;1.20;;;24.10;64.80;;;;;;4462331;32;20108;-72
2022/08/20 07:19:10;;;;;;;5.60;1.00;;;24.10;64.60;;;;;;4462010;32;20151;-74
2022/08/20 07:21:36;;;;;;;7.50;1.00;;;24.10;64.80;;;;;;4462192;32;20219;-74
2022/08/20 07:24:02;;;;;;;5.30;1.13;;;24.10;64.50;;;;;;4462021;32;20391;-74
2022/08/20 07:26:29;;;;;;;6.53;1.05;;;24.10;64.30;;;;;;4461892;32;20098;-74
2022/08/20 07:28:55;;;;;;;6.05;1.42;;;24.10;64.30;;;;;;4447976;32;20098;-74
2022/08/20 07:34:05;;;;;;;2.75;0.93;;;24.20;64.20;;;;;;4461939;32;20167;-74
2022/08/20 07:36:31;;;;;;;4.18;0.80;;;24.20;64.30;;;;;;4447617;32;20490;-74
2022/08/20 07:38:57;;;;;;;3.08;0.85;;;24.20;64.30;;;;;;4461564;32;20192;-74
2022/08/20 07:41:23;;;;;;;4.03;0.90;;;24.20;64.30;;;;;;4461491;32;20081;-74
2022/08/20 07:43:49;;;;;;;3.53;1.10;;;24.20;64.40;;;;;;4461952;32;20128;-74
2022/08/20 07:46:17;;;;;;;5.18;1.08;;;24.20;64.40;;;;;;4461611;32;20451;-74
2022/08/20 07:48:45;;;;;;;4.30;0.90;;;24.20;64.50;;;;;;4461750;32;20117;-73
2022/08/20 07:51:15;;;;;;;3.42;1.00;;;24.20;64.50;;;;;;4447698;32;20081;-73
2022/08/20 07:53:42;;;;;;;3.63;1.23;;;24.20;64.50;;;;;;4461444;32;20140;-74
2022/08/20 07:56:11;;;;;;;5.13;1.25;;;24.20;64.50;;;;;;4461503;32;20092;-74
2022/08/20 07:58:42;;;;;;;5.30;0.65;;;24.20;64.40;;;;;;4461220;32;20499;-74
2022/08/20 08:01:10;;;;;;;4.85;1.17;;;24.30;64.30;;;;;;4461535;32;20089;-73
2022/08/20 08:03:36;;;;;;;3.45;0.85;;;24.30;64.30;;;;;;4461470;32;20167;-74
2022/08/20 08:06:03;;;;;;;5.45;1.08;;;24.20;64.20;;;;;;4447249;32;20089;-73
2022/08/20 08:08:31;;;;;;;5.18;1.17;;;24.30;64.20;;;;;;4461766;32;20227;-74
2022/08/20 08:11:01;;;;;;;4.40;1.02;;;24.30;63.90;;;;;;4461322;32;20077;-74
2022/08/20 08:13:32;;;;;;;3.63;1.15;;;24.20;63.70;;;;;;4460977;32;20499;-74
2022/08/20 08:16:00;;;;;;;4.63;1.30;;;24.30;63.60;;;;;;4461299;32;20077;-74
2022/08/20 08:18:37;;;;;;;5.80;1.48;;;24.30;63.40;;;;;;4461168;32;20158;-74
2022/08/20 08:21:04;;;;;;;2.92;1.02;;;24.30;62.80;;;;;;4461272;32;20078;-74
2022/08/20 08:23:31;;;;;;;2.72;0.90;;;24.20;62.50;;;;;;4461417;32;20493;-74
2022/08/20 08:25:57;;;;;;;10.75;1.73;;;24.30;62.40;;;;;;4461351;32;20139;-74
2022/08/20 08:28:27;;;;;;;7.75;1.45;;;24.30;62.10;;;;;;4460988;32;20200;-74
2022/08/20 08:30:52;;;;;;;9.50;1.77;;;24.30;62.20;;;;;;4461211;32;20070;-74
2022/08/20 08:33:29;;;;;;;8.65;1.85;;;24.20;62.00;;;;;;4447009;32;20159;-74
2022/08/20 08:35:58;;;;;;;8.80;1.23;;;24.30;61.80;;;;;;4461078;32;20105;-72
2022/08/20 08:38:25;;;;;;;10.15;1.27;;;24.30;61.70;;;;;;4460953;32;20510;-72
2022/08/20 08:40:55;;;;;;;12.57;1.70;;;24.30;61.60;;;;;;4460881;32;20163;-72
2022/08/20 08:43:24;;;;;;;9.25;1.60;;;24.30;61.50;;;;;;4446587;32;20089;-73
2022/08/20 08:46:00;;;;;;;11.57;1.73;;;24.30;61.30;;;;;;4460983;32;20081;-72
2022/08/20 08:48:32;;;;;;;8.63;1.85;;;24.30;61.00;;;;;;4461115;32;20082;-73
2022/08/20 08:51:01;;;;;;;5.78;1.35;;;24.30;60.80;;;;;;4460963;32;20077;-73
2022/08/20 08:53:32;;;;;;;7.00;2.05;;;24.30;60.70;;;;;;4460708;32;20082;-73
2022/08/20 08:55:59;;;;;;;6.03;1.60;;;24.30;60.60;;;;;;4461062;32;20089;-72
2022/08/20 08:58:26;;;;;;;9.95;1.30;;;24.30;60.40;;;;;;4460661;32;20165;-73
2022/08/20 09:00:53;;;;;;;5.30;1.25;;;24.30;60.20;;;;;;4460582;32;20082;-72
2022/08/20 09:03:29;;;;;;;7.30;1.75;;;24.30;60.20;;;;;;4446643;32;20077;-73
2022/08/20 09:05:58;;;;;;;4.47;0.90;;;24.30;60.00;;;;;;4461046;32;20494;-73
2022/08/20 09:08:42;;;;;;;5.10;1.33;;;24.30;59.70;;;;;;4460604;32;20089;-72
2022/08/20 09:11:08;;;;;;;6.75;1.30;;;24.40;59.60;;;;;;4460485;32;20082;-72
2022/08/20 09:13:34;;;;;;;4.90;1.10;;;24.30;59.70;;;;;;4460370;32;20108;-74
2022/08/20 09:16:00;;;;;;;8.90;1.65;;;24.40;59.70;;;;;;4460534;32;20402;-74
2022/08/20 09:18:26;;;;;;;5.03;1.27;;;24.40;59.40;;;;;;4460520;32;20183;-74
2022/08/20 09:20:52;;;;;;;6.13;0.93;;;24.40;59.30;;;;;;4460729;32;20163;-72
2022/08/20 09:23:18;;;;;;;5.70;1.52;;;24.40;59.30;;;;;;4460500;32;20092;-73
2022/08/20 09:25:44;;;;;;;8.05;1.48;;;24.40;59.30;;;;;;4460741;32;20084;-73
2022/08/20 09:28:09;;;;;;;8.95;1.48;;;24.40;59.40;;;;;;4460390;32;20411;-74
2022/08/20 09:30:36;;;;;;;5.25;1.50;;;24.40;59.50;;;;;;4462588;32;20495;-73
2022/08/20 09:33:02;;;;;;;6.78;1.20;;;24.40;59.60;;;;;;4463310;32;20172;-73
2022/08/20 09:35:29;;;;;;;5.68;1.38;;;24.40;59.30;;;;;;4463451;32;20403;-74
2022/08/20 09:37:54;;;;;;;7.05;1.30;;;24.40;59.20;;;;;;4463359;32;20085;-74
2022/08/20 09:40:21;;;;;;;7.05;1.27;;;24.40;59.00;;;;;;4463283;32;20074;-73
2022/08/20 09:42:47;;;;;;;5.72;1.40;;;24.40;59.00;;;;;;4463573;32;20082;-74
2022/08/20 09:45:14;;;;;;;4.20;1.30;;;24.40;59.00;;;;;;4463441;32;20490;-73
2022/08/20 09:47:40;;;;;;;3.58;1.10;;;24.40;58.90;;;;;;4463307;32;20077;-74
2022/08/20 09:50:06;;;;;;;5.97;1.10;;;24.40;59.10;;;;;;4463547;32;20085;-74
2022/08/20 09:52:35;;;;;;;4.88;1.38;;;24.40;59.00;;;;;;4463366;32;20231;-73
2022/08/20 09:55:15;;;;;;;4.63;1.02;;;24.40;58.90;;;;;;4463310;32;20077;-73
2022/08/20 09:57:42;;;;;;;4.13;1.10;;;24.40;58.60;;;;;;4463738;32;20498;-73
2022/08/20 10:00:08;;;;;;;7.03;1.42;;;24.40;58.60;;;;;;4449034;32;20089;-72
2022/08/20 10:02:34;;;;;;;4.80;1.55;;;24.50;58.70;;;;;;4463560;32;20104;-73
2022/08/20 10:05:00;;;;;;;8.25;1.40;;;24.50;58.40;;;;;;4463136;32;20406;-74
2022/08/20 10:07:26;;;;;;;7.05;1.23;;;24.50;58.20;;;;;;4463079;32;20184;-74
2022/08/20 10:09:51;;;;;;;5.05;1.23;;;24.50;58.10;;;;;;4462782;32;20486;-73
2022/08/20 10:12:17;;;;;;;8.90;1.63;;;24.60;57.70;;;;;;4463361;32;20073;-74
2022/08/20 10:14:43;;;;;;;5.38;1.52;;;24.50;57.60;;;;;;4463019;32;20080;-74
2022/08/20 10:17:09;;;;;;;4.47;1.48;;;24.60;57.60;;;;;;4462998;32;20164;-74
2022/08/20 10:19:35;;;;;;;6.78;1.33;;;24.60;57.60;;;;;;4463022;32;20081;-73
2022/08/20 10:22:01;;;;;;;5.25;1.38;;;24.60;57.60;;;;;;4463150;32;20216;-74
2022/08/20 10:24:28;;;;;;;4.63;1.27;;;24.60;57.60;;;;;;4463042;32;20081;-73
2022/08/20 10:26:57;;;;;;;4.40;1.27;;;24.60;58.00;;;;;;4462767;32;20070;-73
2022/08/20 10:29:24;;;;;;;11.00;1.80;;;24.60;57.80;;;;;;4463035;32;20427;-74
2022/08/20 10:31:51;;;;;;;10.15;1.67;;;24.60;57.20;;;;;;4462695;32;20535;-73
2022/08/20 10:34:17;;;;;;;6.45;1.65;;;24.60;57.00;;;;;;4448560;32;20082;-73
2022/08/20 10:36:43;;;;;;;8.82;1.70;;;24.60;57.00;;;;;;4462397;32;20110;-73
2022/08/20 10:39:09;;;;;;;8.82;1.50;;;24.60;56.90;;;;;;4448702;32;20070;-72
2022/08/20 10:41:35;;;;;;;5.93;1.48;;;24.60;57.00;;;;;;4461377;32;20207;-73
2022/08/20 10:44:02;;;;;;;7.28;2.10;;;24.50;56.70;;;;;;4462578;32;20085;-72
2022/08/20 10:46:28;;;;;;;4.70;1.10;;;24.50;56.50;;;;;;4448483;32;20152;-74
2022/08/20 10:48:54;;;;;;;5.80;1.30;;;24.50;56.10;;;;;;4462276;32;20203;-74
2022/08/20 10:51:20;;;;;;;7.38;1.70;;;24.50;55.90;;;;;;4462216;32;20066;-74
2022/08/20 10:53:45;;;;;;;6.97;1.65;;;24.50;55.90;;;;;;4462187;32;20135;-75
2022/08/20 10:56:11;;;;;;;7.85;1.90;;;24.50;56.20;;;;;;4462497;32;20090;-73
2022/08/20 10:58:37;;;;;;;8.77;1.67;;;24.40;56.30;;;;;;4462384;32;20062;-72
2022/08/20 11:01:03;;;;;;;5.38;1.70;;;24.40;56.10;;;;;;4462506;32;20483;-76
2022/08/20 11:03:30;;;;;;;10.07;1.70;;;24.40;56.10;;;;;;4462266;32;20070;-74
2022/08/20 11:05:56;;;;;;;7.43;1.45;;;24.40;56.10;;;;;;4462039;32;20168;-73
2022/08/20 11:08:21;;;;;;;12.18;1.65;;;24.40;55.90;;;;;;4461946;32;20058;-74
2022/08/20 11:10:47;;;;;;;8.68;1.58;;;24.40;56.10;;;;;;4462315;32;20402;-73
2022/08/20 11:13:13;;;;;;;7.53;1.48;;;24.50;56.60;;;;;;4447943;32;20070;-74
2022/08/20 11:15:42;;;;;;;8.20;1.75;;;24.50;55.60;;;;;;4462204;32;20227;-74
2022/08/20 11:18:08;;;;;;;8.00;1.70;;;24.50;55.50;;;;;;4462032;32;20085;-74
2022/08/20 11:20:34;;;;;;;14.68;2.38;;;24.50;55.30;;;;;;4461839;32;20081;-74
2022/08/20 11:23:00;;;;;;;10.52;1.63;;;24.50;55.00;;;;;;4462052;32;20222;-74
2022/08/20 11:25:27;;;;;;;9.38;1.75;;;24.50;54.70;;;;;;4462198;32;20585;-74
2022/08/20 11:27:54;;;;;;;8.38;1.38;;;24.50;54.60;;;;;;4461881;32;20162;-73
2022/08/20 11:30:27;;;;;;;12.32;2.00;;;24.60;54.10;;;;;;4462119;32;20162;-74
2022/08/20 11:32:54;;;;;;;12.15;1.40;;;24.60;53.70;;;;;;4447956;32;20499;-74
2022/08/20 11:35:23;;;;;;;7.35;1.50;;;24.60;53.90;;;;;;4461604;32;20070;-74
2022/08/20 11:37:50;;;;;;;6.18;1.50;;;24.70;54.30;;;;;;4462041;32;20410;-74
2022/08/20 11:40:16;;;;;;;6.47;1.52;;;24.70;54.30;;;;;;4462076;32;20659;-73
2022/08/20 11:42:42;;;;;;;7.25;1.65;;;24.70;54.30;;;;;;4447522;32;20078;-75
2022/08/20 11:45:08;;;;;;;11.48;1.70;;;24.70;54.40;;;;;;4461513;32;20113;-74
2022/08/20 11:47:36;;;;;;;6.45;1.45;;;24.70;54.40;;;;;;4447523;32;20116;-75
2022/08/20 11:50:11;;;;;;;6.22;1.65;;;24.70;54.40;;;;;;4461705;32;20239;-75
2022/08/20 11:52:37;;;;;;;8.65;1.42;;;24.70;54.00;;;;;;4461329;32;20088;-75
2022/08/20 11:55:05;;;;;;;7.85;1.48;;;24.70;53.80;;;;;;4461492;32;20400;-74
2022/08/20 11:57:33;;;;;;;8.02;1.73;;;24.70;53.60;;;;;;4461289;32;20081;-75
2022/08/20 12:00:03;;;;;;;3.65;1.25;;;24.70;53.30;;;;;;4461195;32;20207;-76
2022/08/20 12:02:28;;;;;;;3.78;1.00;;;24.70;53.40;;;;;;4461171;32;20070;-74
2022/08/20 12:04:54;;;;;;;6.00;1.42;;;24.70;53.70;;;;;;4461416;32;20100;-71
2022/08/20 12:07:22;;;;;;;5.30;1.20;;;24.70;53.80;;;;;;4461053;32;20092;-71
2022/08/20 12:09:49;;;;;;;4.93;1.20;;;24.70;54.10;;;;;;4461353;32;20164;-72
2022/08/20 12:12:16;;;;;;;5.22;1.20;;;24.70;54.20;;;;;;4461383;32;20078;-76
2022/08/20 12:14:42;;;;;;;8.10;1.55;;;24.70;54.10;;;;;;4461338;32;20088;-71
2022/08/20 12:17:22;;;;;;;9.43;1.80;;;24.70;53.80;;;;;;4461151;32;20065;-71
2022/08/20 12:19:50;;;;;;;7.03;1.35;;;24.70;53.80;;;;;;4447276;32;20086;-72
2022/08/20 12:22:17;;;;;;;8.20;1.65;;;24.70;53.70;;;;;;4461087;32;20628;-72
2022/08/20 12:24:43;;;;;;;5.53;1.35;;;24.70;53.50;;;;;;4447144;32;20104;-71
2022/08/20 12:27:24;;;;;;;6.70;1.45;;;24.70;53.70;;;;;;4461043;32;20526;-73
2022/08/20 12:29:52;;;;;;;5.78;1.40;;;24.70;53.50;;;;;;4461112;32;20389;-71
2022/08/20 12:32:19;;;;;;;11.90;1.95;;;24.70;53.80;;;;;;4460901;32;20227;-72
2022/08/20 12:34:46;;;;;;;8.75;1.80;;;24.70;53.80;;;;;;4460947;32;20109;-72
2022/08/20 12:37:21;;;;;;;4.88;1.65;;;24.70;53.40;;;;;;4460727;32;20207;-72
2022/08/20 12:39:50;;;;;;;5.57;1.10;;;24.70;53.40;;;;;;4461267;32;20407;-73
2022/08/20 12:42:16;;;;;;;6.35;1.40;;;24.70;53.70;;;;;;4460652;32;20125;-73
2022/08/20 12:44:42;;;;;;;8.43;1.52;;;24.70;53.80;;;;;;4460966;32;20082;-72
2022/08/20 12:47:26;;;;;;;6.00;1.45;;;24.70;53.90;;;;;;4460831;32;20216;-73
2022/08/20 12:50:07;;;;;;;9.00;2.15;;;24.70;53.90;;;;;;4461254;32;20058;-72
2022/08/20 12:52:34;;;;;;;7.55;1.50;;;24.70;53.90;;;;;;4460904;32;20081;-72
2022/08/20 12:55:01;;;;;;;6.30;1.30;;;24.70;53.80;;;;;;4460825;32;20074;-71